createdAt,value
2023-03-24T00:00:47.222Z,84.23
2023-03-24T00:01:46.987Z,84.33
2023-03-24T00:02:47.053Z,84.33
2023-03-24T00:03:47.026Z,84.33
2023-03-24T00:04:47.190Z,84.23
2023-03-24T00:05:46.927Z,84.33
2023-03-24T00:06:46.914Z,84.33
2023-03-24T00:07:46.909Z,84.43
2023-03-24T00:08:46.889Z,84.64
2023-03-24T00:09:46.867Z,84.74
2023-03-24T00:10:47.270Z,84.88
2023-03-24T00:11:46.829Z,84.98
2023-03-24T00:12:46.856Z,85.19
2023-03-24T00:13:46.859Z,85.28
2023-03-24T00:14:46.813Z,85.39
2023-03-24T00:15:46.836Z,85.49
2023-03-24T00:16:46.812Z,85.49
2023-03-24T00:17:46.797Z,85.49
2023-03-24T00:18:46.772Z,85.60
2023-03-24T00:19:46.758Z,85.49
2023-03-24T00:20:47.010Z,85.60
2023-03-24T00:21:46.687Z,85.60
2023-03-24T00:22:47.003Z,85.49
2023-03-24T00:23:47.004Z,85.60
2023-03-24T00:24:46.917Z,85.60
2023-03-24T00:25:46.778Z,85.60
2023-03-24T00:26:46.634Z,85.69
2023-03-24T00:27:46.601Z,85.69
2023-03-24T00:28:46.621Z,85.80
2023-03-24T00:29:46.660Z,85.90
2023-03-24T00:30:47.010Z,85.90
2023-03-24T00:31:46.560Z,86.00
2023-03-24T00:32:46.647Z,86.00
2023-03-24T00:33:46.649Z,86.15
2023-03-24T00:34:46.522Z,86.35
2023-03-24T00:35:46.584Z,86.45
2023-03-24T00:36:46.646Z,86.55
2023-03-24T00:37:46.857Z,86.45
2023-03-24T00:38:46.775Z,86.45
2023-03-24T00:39:46.451Z,86.55
2023-03-24T00:40:46.576Z,86.65
2023-03-24T00:41:46.443Z,86.65
2023-03-24T00:42:46.466Z,86.76
2023-03-24T00:43:46.510Z,86.76
2023-03-24T00:44:46.886Z,86.86
2023-03-24T00:45:46.378Z,86.96
2023-03-24T00:46:46.467Z,87.06
2023-03-24T00:47:46.374Z,87.06
2023-03-24T00:48:46.822Z,87.16
2023-03-24T00:49:46.336Z,87.16
2023-03-24T00:50:46.534Z,87.16
2023-03-24T00:51:46.323Z,87.16
2023-03-24T00:52:46.305Z,87.16
2023-03-24T00:53:46.291Z,87.26
2023-03-24T00:54:46.304Z,87.26
2023-03-24T00:55:46.246Z,87.26
2023-03-24T00:56:46.637Z,87.37
2023-03-24T00:57:46.230Z,87.51
2023-03-24T00:58:46.204Z,87.61
2023-03-24T00:59:46.478Z,87.61
2023-03-24T01:00:46.417Z,87.71
2023-03-24T01:01:46.192Z,87.82
2023-03-24T01:02:46.207Z,87.82
2023-03-24T01:03:46.333Z,88.02
2023-03-24T01:04:46.109Z,88.02
2023-03-24T01:05:46.154Z,88.02
2023-03-24T01:06:46.161Z,88.12
2023-03-24T01:07:46.079Z,88.22
2023-03-24T01:08:46.061Z,88.32
2023-03-24T01:09:46.057Z,88.32
2023-03-24T01:10:46.289Z,88.32
2023-03-24T01:11:46.045Z,88.32
2023-03-24T01:12:46.016Z,88.22
2023-03-24T01:13:46.001Z,88.12
2023-03-24T01:14:45.983Z,88.22
2023-03-24T01:15:45.974Z,88.32
2023-03-24T01:16:46.021Z,88.43
2023-03-24T01:17:45.974Z,88.43
2023-03-24T01:18:45.920Z,88.32
2023-03-24T01:19:45.917Z,88.43
2023-03-24T01:20:46.057Z,88.53
2023-03-24T01:21:45.901Z,88.53
2023-03-24T01:22:45.884Z,88.63
2023-03-24T01:23:45.868Z,88.63
2023-03-24T01:24:45.894Z,88.63
2023-03-24T01:25:45.832Z,88.73
2023-03-24T01:26:45.823Z,88.73
2023-03-24T01:27:45.827Z,88.84
2023-03-24T01:28:45.783Z,88.84
2023-03-24T01:29:45.786Z,88.93
2023-03-24T01:30:46.131Z,88.93
2023-03-24T01:31:45.790Z,88.84
2023-03-24T01:32:45.757Z,88.84
2023-03-24T01:33:45.719Z,88.84
2023-03-24T01:34:45.716Z,88.84
2023-03-24T01:35:45.744Z,88.79
2023-03-24T01:36:45.702Z,88.69
2023-03-24T01:37:45.675Z,88.73
2023-03-24T01:38:45.649Z,88.69
2023-03-24T01:39:45.640Z,88.69
2023-03-24T01:40:45.936Z,88.69
2023-03-24T01:41:45.632Z,88.69
2023-03-24T01:42:45.601Z,88.69
2023-03-24T01:43:45.600Z,88.69
2023-03-24T01:44:45.576Z,88.69
2023-03-24T01:45:45.571Z,88.69
2023-03-24T01:46:45.561Z,88.69
2023-03-24T01:47:45.591Z,88.69
2023-03-24T01:48:45.527Z,88.59
2023-03-24T01:49:45.511Z,88.49
2023-03-24T01:50:45.724Z,88.49
2023-03-24T01:51:45.503Z,88.59
2023-03-24T01:52:45.474Z,88.69
2023-03-24T01:53:45.452Z,88.69
2023-03-24T01:54:45.431Z,88.69
2023-03-24T01:55:45.428Z,88.69
2023-03-24T01:56:45.432Z,88.69
2023-03-24T01:57:45.416Z,88.69
2023-03-24T01:58:45.378Z,88.59
2023-03-24T01:59:45.369Z,88.59
2023-03-24T02:00:45.548Z,88.59
2023-03-24T02:01:45.359Z,88.59
2023-03-24T02:02:45.373Z,88.59
2023-03-24T02:03:45.336Z,88.49
2023-03-24T02:04:45.310Z,88.49
2023-03-24T02:05:45.305Z,88.49
2023-03-24T02:06:45.481Z,88.49
2023-03-24T02:07:45.279Z,88.39
2023-03-24T02:08:45.253Z,88.39
2023-03-24T02:09:45.236Z,88.39
2023-03-24T02:10:45.352Z,88.39
2023-03-24T02:11:45.238Z,88.39
2023-03-24T02:12:45.209Z,88.39
2023-03-24T02:13:45.177Z,88.39
2023-03-24T02:14:45.184Z,88.39
2023-03-24T02:15:45.170Z,88.39
2023-03-24T02:16:45.157Z,88.39
2023-03-24T02:17:45.224Z,88.53
2023-03-24T02:18:45.248Z,88.63
2023-03-24T02:19:45.108Z,88.73
2023-03-24T02:20:45.233Z,88.73
2023-03-24T02:21:45.102Z,88.73
2023-03-24T02:22:45.067Z,88.73
2023-03-24T02:23:45.045Z,88.73
2023-03-24T02:24:45.029Z,88.73
2023-03-24T02:25:45.022Z,88.73
2023-03-24T02:26:45.028Z,88.73
2023-03-24T02:27:45.004Z,88.73
2023-03-24T02:28:44.983Z,88.84
2023-03-24T02:29:44.970Z,88.93
2023-03-24T02:30:45.118Z,88.93
2023-03-24T02:31:44.985Z,89.04
2023-03-24T02:32:44.976Z,89.04
2023-03-24T02:33:44.930Z,89.14
2023-03-24T02:34:44.895Z,89.25
2023-03-24T02:35:44.919Z,89.25
2023-03-24T02:36:44.886Z,89.25
2023-03-24T02:37:44.879Z,89.25
2023-03-24T02:38:44.845Z,89.34
2023-03-24T02:39:44.838Z,89.34
2023-03-24T02:40:44.959Z,89.28
2023-03-24T02:41:44.808Z,89.28
2023-03-24T02:42:44.921Z,89.39
2023-03-24T02:43:44.784Z,89.49
2023-03-24T02:44:44.790Z,89.49
2023-03-24T02:45:44.804Z,89.39
2023-03-24T02:46:44.741Z,89.49
2023-03-24T02:47:44.794Z,89.49
2023-03-24T02:48:44.721Z,89.49
2023-03-24T02:49:44.694Z,89.59
2023-03-24T02:50:44.809Z,89.59
2023-03-24T02:51:44.676Z,89.69
2023-03-24T02:52:44.668Z,89.69
2023-03-24T02:53:44.651Z,89.69
2023-03-24T02:54:44.619Z,89.79
2023-03-24T02:55:44.614Z,89.90
2023-03-24T02:56:44.657Z,89.90
2023-03-24T02:57:44.609Z,89.90
2023-03-24T02:58:44.636Z,89.90
2023-03-24T02:59:44.579Z,90.14
2023-03-24T03:00:45.072Z,90.25
2023-03-24T03:01:44.575Z,90.31
2023-03-24T03:02:44.584Z,90.35
2023-03-24T03:03:44.532Z,90.35
2023-03-24T03:04:44.771Z,90.20
2023-03-24T03:05:44.482Z,90.10
2023-03-24T03:06:44.474Z,90.10
2023-03-24T03:07:44.471Z,90.25
2023-03-24T03:08:44.450Z,90.25
2023-03-24T03:09:44.439Z,90.14
2023-03-24T03:10:44.584Z,90.25
2023-03-24T03:11:44.393Z,90.25
2023-03-24T03:12:44.402Z,90.25
2023-03-24T03:13:44.371Z,90.25
2023-03-24T03:14:44.366Z,90.25
2023-03-24T03:15:44.377Z,90.25
2023-03-24T03:16:44.332Z,90.35
2023-03-24T03:17:44.369Z,90.35
2023-03-24T03:18:44.308Z,90.35
2023-03-24T03:19:44.294Z,90.45
2023-03-24T03:20:44.479Z,90.55
2023-03-24T03:21:44.266Z,90.55
2023-03-24T03:22:44.267Z,90.45
2023-03-24T03:23:44.243Z,90.55
2023-03-24T03:24:44.225Z,90.55
2023-03-24T03:25:44.205Z,90.66
2023-03-24T03:26:44.205Z,90.75
2023-03-24T03:27:44.186Z,90.75
2023-03-24T03:28:44.202Z,90.86
2023-03-24T03:29:44.155Z,90.86
2023-03-24T03:30:44.365Z,90.86
2023-03-24T03:31:44.130Z,90.86
2023-03-24T03:32:44.134Z,90.86
2023-03-24T03:33:44.127Z,90.86
2023-03-24T03:34:44.090Z,90.75
2023-03-24T03:35:44.378Z,90.66
2023-03-24T03:36:44.075Z,90.66
2023-03-24T03:37:46.589Z,90.75
2023-03-24T03:38:44.078Z,90.66
2023-03-24T03:39:44.048Z,90.66
2023-03-24T03:40:44.015Z,90.66
2023-03-24T03:41:43.985Z,90.66
2023-03-24T03:42:43.987Z,90.66
2023-03-24T03:43:43.979Z,90.45
2023-03-24T03:44:43.965Z,90.31
2023-03-24T03:45:44.123Z,90.31
2023-03-24T03:46:44.040Z,90.41
2023-03-24T03:47:43.933Z,90.41
2023-03-24T03:48:43.931Z,90.41
2023-03-24T03:49:43.887Z,90.31
2023-03-24T03:50:43.880Z,90.20
2023-03-24T03:51:43.856Z,90.10
2023-03-24T03:52:43.869Z,90.00
2023-03-24T03:53:43.866Z,89.90
2023-03-24T03:54:43.841Z,89.79
2023-03-24T03:55:43.956Z,89.79
2023-03-24T03:56:43.816Z,89.69
2023-03-24T03:57:43.775Z,89.69
2023-03-24T03:58:51.039Z,89.59
2023-03-24T03:59:43.779Z,89.49
2023-03-24T04:00:43.754Z,89.49
2023-03-24T04:01:43.767Z,89.28
2023-03-24T04:02:43.961Z,89.18
2023-03-24T04:03:43.882Z,89.14
2023-03-24T04:04:46.732Z,89.04
2023-03-24T04:05:44.827Z,88.84
2023-03-24T04:06:43.662Z,88.73
2023-03-24T04:07:43.640Z,88.43
2023-03-24T04:08:43.638Z,88.32
2023-03-24T04:09:43.646Z,88.22
2023-03-24T04:10:44.622Z,87.82
2023-03-24T04:11:43.613Z,87.41
2023-03-24T04:12:43.578Z,87.16
2023-03-24T04:13:43.614Z,86.86
2023-03-24T04:14:43.576Z,86.86
2023-03-24T04:15:43.659Z,86.86
2023-03-24T04:16:45.856Z,86.55
2023-03-24T04:17:43.539Z,86.21
2023-03-24T04:18:43.502Z,86.00
2023-03-24T04:19:43.534Z,85.90
2023-03-24T04:20:43.471Z,85.69
2023-03-24T04:21:43.464Z,85.60
2023-03-24T04:22:43.444Z,85.45
2023-03-24T04:23:43.430Z,85.55
2023-03-24T04:24:43.451Z,85.45
2023-03-24T04:25:43.562Z,85.35
2023-03-24T04:26:43.392Z,85.45
2023-03-24T04:27:43.366Z,85.45
2023-03-24T04:28:43.383Z,85.75
2023-03-24T04:29:43.354Z,85.75
2023-03-24T04:30:43.353Z,85.66
2023-03-24T04:31:43.393Z,85.55
2023-03-24T04:32:43.348Z,85.55
2023-03-24T04:33:43.309Z,85.55
2023-03-24T04:34:43.307Z,85.55
2023-03-24T04:35:43.509Z,85.66
2023-03-24T04:36:43.261Z,85.55
2023-03-24T04:37:43.236Z,85.25
2023-03-24T04:38:43.256Z,85.25
2023-03-24T04:39:43.232Z,85.25
2023-03-24T04:40:43.554Z,85.35
2023-03-24T04:41:43.205Z,85.45
2023-03-24T04:42:43.181Z,85.75
2023-03-24T04:43:43.287Z,85.96
2023-03-24T04:44:43.326Z,86.27
2023-03-24T04:45:43.621Z,86.47
2023-03-24T04:46:43.118Z,86.27
2023-03-24T04:47:43.290Z,86.16
2023-03-24T04:48:43.120Z,85.86
2023-03-24T04:49:43.096Z,85.66
2023-03-24T04:50:43.210Z,85.55
2023-03-24T04:51:43.057Z,85.66
2023-03-24T04:52:43.050Z,85.66
2023-03-24T04:53:43.019Z,85.75
2023-03-24T04:54:43.186Z,85.66
2023-03-24T04:55:43.213Z,85.35
2023-03-24T04:56:43.067Z,85.25
2023-03-24T04:57:43.098Z,85.21
2023-03-24T04:58:42.962Z,85.31
2023-03-24T04:59:42.976Z,85.00
2023-03-24T05:00:42.986Z,84.80
2023-03-24T05:01:42.904Z,84.80
2023-03-24T05:02:42.928Z,84.59
2023-03-24T05:03:42.953Z,84.19
2023-03-24T05:04:42.897Z,84.09
2023-03-24T05:05:43.075Z,84.05
2023-03-24T05:06:42.863Z,83.64
2023-03-24T05:07:42.838Z,83.54
2023-03-24T05:08:42.821Z,83.54
2023-03-24T05:09:42.803Z,83.23
2023-03-24T05:10:42.811Z,83.13
2023-03-24T05:11:42.782Z,83.13
2023-03-24T05:12:42.751Z,83.13
2023-03-24T05:13:42.750Z,83.34
2023-03-24T05:14:42.728Z,83.34
2023-03-24T05:15:42.842Z,83.23
2023-03-24T05:16:42.758Z,82.93
2023-03-24T05:17:42.773Z,82.82
2023-03-24T05:18:42.680Z,82.89
2023-03-24T05:19:42.673Z,82.82
2023-03-24T05:20:42.715Z,82.68
2023-03-24T05:21:42.631Z,82.79
2023-03-24T05:22:42.624Z,82.59
2023-03-24T05:23:42.625Z,82.38
2023-03-24T05:24:42.603Z,82.38
2023-03-24T05:25:42.818Z,82.18
2023-03-24T05:26:42.592Z,82.18
2023-03-24T05:27:42.561Z,82.38
2023-03-24T05:28:42.533Z,82.48
2023-03-24T05:29:42.546Z,82.07
2023-03-24T05:30:42.631Z,81.98
2023-03-24T05:31:42.518Z,81.87
2023-03-24T05:32:42.999Z,81.87
2023-03-24T05:33:42.493Z,81.67
2023-03-24T05:34:42.500Z,81.77
2023-03-24T05:35:42.576Z,81.67
2023-03-24T05:36:42.436Z,81.77
2023-03-24T05:37:42.440Z,81.77
2023-03-24T05:38:42.424Z,81.67
2023-03-24T05:39:42.423Z,81.67
2023-03-24T05:40:42.409Z,81.77
2023-03-24T05:41:42.375Z,81.98
2023-03-24T05:42:42.382Z,81.77
2023-03-24T05:43:42.378Z,81.77
2023-03-24T05:44:42.361Z,81.77
2023-03-24T05:45:42.365Z,82.07
2023-03-24T05:46:42.317Z,82.07
2023-03-24T05:47:42.311Z,81.87
2023-03-24T05:48:42.281Z,81.87
2023-03-24T05:49:42.260Z,81.57
2023-03-24T05:50:42.264Z,81.57
2023-03-24T05:51:42.252Z,81.67
2023-03-24T05:52:42.220Z,81.98
2023-03-24T05:53:42.231Z,82.38
2023-03-24T05:54:42.207Z,81.77
2023-03-24T05:55:42.255Z,81.67
2023-03-24T05:56:42.235Z,81.77
2023-03-24T05:57:42.541Z,81.57
2023-03-24T05:58:42.138Z,81.57
2023-03-24T05:59:42.130Z,82.28
2023-03-24T06:00:42.124Z,85.39
2023-03-24T06:01:42.097Z,85.76
2023-03-24T06:02:42.184Z,84.23
2023-03-24T06:03:42.204Z,83.48
2023-03-24T06:04:42.102Z,83.54
2023-03-24T06:05:42.164Z,82.43
2023-03-24T06:06:42.015Z,81.58
2023-03-24T06:07:42.017Z,82.50
2023-03-24T06:08:42.027Z,81.27
2023-03-24T06:09:41.990Z,79.72
2023-03-24T06:10:41.981Z,78.19
2023-03-24T06:11:41.998Z,78.70
2023-03-24T06:12:41.954Z,78.91
2023-03-24T06:13:41.930Z,79.41
2023-03-24T06:14:41.933Z,78.46
2023-03-24T06:15:41.996Z,79.17
2023-03-24T06:16:41.897Z,78.97
2023-03-24T06:17:41.945Z,77.75
2023-03-24T06:18:41.884Z,76.23
2023-03-24T06:19:41.842Z,76.47
2023-03-24T06:20:41.855Z,76.17
2023-03-24T06:21:42.270Z,76.00
2023-03-24T06:22:41.832Z,76.20
2023-03-24T06:23:42.747Z,76.75
2023-03-24T06:24:41.761Z,77.15
2023-03-24T06:25:41.838Z,77.29
2023-03-24T06:26:42.867Z,77.59
2023-03-24T06:27:41.745Z,77.90
2023-03-24T06:28:41.712Z,78.20
2023-03-24T06:29:41.809Z,78.55
2023-03-24T06:30:41.863Z,78.75
2023-03-24T06:31:41.726Z,78.85
2023-03-24T06:32:41.740Z,79.05
2023-03-24T06:33:41.668Z,79.25
2023-03-24T06:34:41.656Z,79.25
2023-03-24T06:35:41.727Z,79.25
2023-03-24T06:36:41.641Z,79.36
2023-03-24T06:37:41.632Z,79.50
2023-03-24T06:38:41.597Z,79.19
2023-03-24T06:39:41.580Z,79.19
2023-03-24T06:40:41.573Z,79.19
2023-03-24T06:41:41.569Z,79.50
2023-03-24T06:42:41.575Z,79.29
2023-03-24T06:43:41.525Z,79.29
2023-03-24T06:44:41.510Z,79.29
2023-03-24T06:45:41.514Z,79.39
2023-03-24T06:46:41.534Z,79.50
2023-03-24T06:47:41.544Z,79.50
2023-03-24T06:48:41.465Z,79.70
2023-03-24T06:49:41.451Z,79.80
2023-03-24T06:50:41.460Z,79.80
2023-03-24T06:51:41.511Z,79.80
2023-03-24T06:52:41.387Z,79.90
2023-03-24T06:53:41.485Z,80.00
2023-03-24T06:54:42.173Z,79.80
2023-03-24T06:55:41.425Z,79.60
2023-03-24T06:56:41.497Z,79.50
2023-03-24T06:57:41.339Z,79.39
2023-03-24T06:58:41.338Z,79.60
2023-03-24T06:59:41.346Z,79.70
2023-03-24T07:00:41.305Z,79.80
2023-03-24T07:01:41.343Z,79.80
2023-03-24T07:02:41.290Z,79.70
2023-03-24T07:03:41.372Z,79.80
2023-03-24T07:04:41.266Z,79.90
2023-03-24T07:05:41.263Z,80.00
2023-03-24T07:06:55.646Z,79.80
2023-03-24T07:08:41.328Z,79.80
2023-03-24T07:09:41.187Z,79.90
2023-03-24T07:10:41.159Z,79.90
2023-03-24T07:11:41.179Z,80.00
2023-03-24T07:12:41.145Z,79.80
2023-03-24T07:13:41.127Z,79.50
2023-03-24T07:14:41.116Z,79.29
2023-03-24T07:15:41.382Z,79.39
2023-03-24T07:16:41.120Z,79.50
2023-03-24T07:17:41.104Z,79.09
2023-03-24T07:18:41.066Z,79.39
2023-03-24T07:19:41.046Z,79.29
2023-03-24T07:20:41.030Z,79.29
2023-03-24T07:21:41.022Z,79.29
2023-03-24T07:22:40.996Z,79.50
2023-03-24T07:23:41.038Z,79.60
2023-03-24T07:24:41.124Z,79.19
2023-03-24T07:25:40.965Z,79.19
2023-03-24T07:26:40.960Z,79.29
2023-03-24T07:27:42.776Z,79.39
2023-03-24T07:28:40.937Z,79.09
2023-03-24T07:29:40.932Z,78.99
2023-03-24T07:30:41.305Z,78.99
2023-03-24T07:31:41.017Z,78.89
2023-03-24T07:32:40.938Z,78.28
2023-03-24T07:33:40.847Z,77.56
2023-03-24T07:34:40.841Z,77.77
2023-03-24T07:35:41.167Z,77.87
2023-03-24T07:36:40.831Z,78.08
2023-03-24T07:37:40.923Z,78.08
2023-03-24T07:38:40.784Z,77.87
2023-03-24T07:39:40.769Z,78.17
2023-03-24T07:40:40.762Z,78.38
2023-03-24T07:41:40.762Z,77.97
2023-03-24T07:42:40.725Z,77.87
2023-03-24T07:43:40.702Z,77.77
2023-03-24T07:44:40.713Z,77.97
2023-03-24T07:45:40.730Z,78.04
2023-03-24T07:46:40.691Z,77.56
2023-03-24T07:47:40.691Z,77.56
2023-03-24T07:48:40.651Z,77.47
2023-03-24T07:49:40.770Z,77.33
2023-03-24T07:50:40.664Z,77.53
2023-03-24T07:51:42.971Z,77.33
2023-03-24T07:52:40.592Z,77.36
2023-03-24T07:53:40.573Z,77.47
2023-03-24T07:54:40.551Z,77.22
2023-03-24T07:55:40.561Z,77.47
2023-03-24T07:56:40.634Z,74.82
2023-03-24T07:57:40.547Z,71.70
2023-03-24T07:58:40.521Z,70.95
2023-03-24T07:59:40.542Z,70.68
2023-03-24T08:00:40.601Z,71.15
2023-03-24T08:01:40.567Z,71.19
2023-03-24T08:02:40.537Z,71.33
2023-03-24T08:03:40.556Z,71.46
2023-03-24T08:04:40.540Z,72.28
2023-03-24T08:05:40.417Z,72.62
2023-03-24T08:06:40.421Z,73.44
2023-03-24T08:07:42.187Z,74.15
2023-03-24T08:08:40.372Z,74.80
2023-03-24T08:09:40.380Z,75.10
2023-03-24T08:10:40.378Z,76.33
2023-03-24T08:11:40.413Z,76.88
2023-03-24T08:12:40.345Z,77.39
2023-03-24T08:13:40.304Z,77.49
2023-03-24T08:14:40.307Z,78.20
2023-03-24T08:15:40.299Z,78.86
2023-03-24T08:16:40.311Z,78.96
2023-03-24T08:17:40.291Z,78.86
2023-03-24T08:18:40.231Z,79.37
2023-03-24T08:19:52.042Z,79.98
2023-03-24T08:20:41.219Z,80.19
2023-03-24T08:21:40.209Z,80.08
2023-03-24T08:22:40.204Z,79.94
2023-03-24T08:23:40.178Z,79.94
2023-03-24T08:24:40.156Z,80.25
2023-03-24T08:25:40.157Z,81.31
2023-03-24T08:26:40.193Z,82.43
2023-03-24T08:27:40.144Z,83.50
2023-03-24T08:28:40.096Z,83.91
2023-03-24T08:29:40.106Z,84.52
2023-03-24T08:30:40.126Z,84.72
2023-03-24T08:31:40.077Z,85.03
2023-03-24T08:32:40.159Z,85.44
2023-03-24T08:33:40.058Z,85.64
2023-03-24T08:34:40.044Z,86.46
2023-03-24T08:35:40.099Z,86.46
2023-03-24T08:36:40.006Z,86.88
2023-03-24T08:37:40.029Z,87.49
2023-03-24T08:38:39.975Z,88.00
2023-03-24T08:39:39.965Z,87.49
2023-03-24T08:40:39.949Z,87.79
2023-03-24T08:41:39.943Z,87.59
2023-03-24T08:42:39.944Z,87.08
2023-03-24T08:43:39.918Z,87.53
2023-03-24T08:44:39.907Z,87.94
2023-03-24T08:45:39.876Z,88.35
2023-03-24T08:46:39.909Z,88.14
2023-03-24T08:47:39.939Z,88.45
2023-03-24T08:48:39.878Z,89.27
2023-03-24T08:49:39.848Z,89.58
2023-03-24T08:50:39.893Z,89.47
2023-03-24T08:51:39.874Z,89.89
2023-03-24T08:52:39.803Z,90.39
2023-03-24T08:53:39.788Z,90.19
2023-03-24T08:54:39.765Z,90.19
2023-03-24T08:55:39.745Z,90.30
2023-03-24T08:56:39.772Z,89.68
2023-03-24T08:57:39.745Z,89.89
2023-03-24T08:58:39.730Z,90.36
2023-03-24T08:59:39.725Z,90.15
2023-03-24T09:00:39.677Z,89.84
2023-03-24T09:01:39.712Z,90.45
2023-03-24T09:02:39.667Z,91.27
2023-03-24T09:03:39.694Z,91.48
2023-03-24T09:04:39.688Z,91.69
2023-03-24T09:05:54.604Z,91.89
2023-03-24T09:06:40.594Z,91.69
2023-03-24T09:07:39.573Z,91.54
2023-03-24T09:08:39.602Z,92.15
2023-03-24T09:09:39.537Z,92.05
2023-03-24T09:10:39.522Z,92.05
2023-03-24T09:11:39.544Z,92.46
2023-03-24T09:12:39.507Z,92.36
2023-03-24T09:13:39.562Z,92.15
2023-03-24T09:14:39.481Z,92.25
2023-03-24T09:15:39.565Z,92.15
2023-03-24T09:16:39.486Z,91.95
2023-03-24T09:17:39.478Z,91.91
2023-03-24T09:18:39.448Z,91.91
2023-03-24T09:19:39.434Z,92.01
2023-03-24T09:20:39.454Z,92.01
2023-03-24T09:21:39.417Z,92.11
2023-03-24T09:22:40.265Z,92.42
2023-03-24T09:23:39.401Z,92.62
2023-03-24T09:24:39.391Z,92.62
2023-03-24T09:25:39.350Z,92.52
2023-03-24T09:26:39.320Z,92.32
2023-03-24T09:27:39.329Z,92.32
2023-03-24T09:28:39.312Z,92.11
2023-03-24T09:29:39.283Z,91.80
2023-03-24T09:30:39.358Z,91.50
2023-03-24T09:31:39.336Z,91.29
2023-03-24T09:32:39.340Z,91.05
2023-03-24T09:33:39.245Z,90.84
2023-03-24T09:34:39.227Z,90.64
2023-03-24T09:35:39.216Z,90.53
2023-03-24T09:36:39.220Z,90.53
2023-03-24T09:37:39.182Z,90.74
2023-03-24T09:38:39.213Z,91.05
2023-03-24T09:39:39.172Z,90.94
2023-03-24T09:40:39.143Z,90.74
2023-03-24T09:41:39.131Z,90.64
2023-03-24T09:42:39.123Z,90.23
2023-03-24T09:43:39.135Z,89.82
2023-03-24T09:44:39.113Z,89.41
2023-03-24T09:45:39.086Z,89.20
2023-03-24T09:46:39.139Z,89.20
2023-03-24T09:47:39.066Z,89.20
2023-03-24T09:48:39.056Z,89.20
2023-03-24T09:49:39.134Z,89.41
2023-03-24T09:50:39.018Z,89.51
2023-03-24T09:51:39.997Z,89.92
2023-03-24T09:52:39.123Z,90.23
2023-03-24T09:53:39.054Z,90.53
2023-03-24T09:54:39.002Z,90.49
2023-03-24T09:55:38.965Z,90.49
2023-03-24T09:56:39.017Z,90.49
2023-03-24T09:57:38.924Z,90.59
2023-03-24T09:58:38.922Z,90.70
2023-03-24T09:59:38.917Z,90.19
2023-03-24T10:00:38.922Z,89.98
2023-03-24T10:01:38.854Z,89.88
2023-03-24T10:02:38.956Z,89.98
2023-03-24T10:03:38.926Z,90.29
2023-03-24T10:04:38.979Z,90.59
2023-03-24T10:05:38.937Z,90.70
2023-03-24T10:06:38.794Z,90.80
2023-03-24T10:07:38.783Z,90.80
2023-03-24T10:08:38.777Z,90.49
2023-03-24T10:09:38.864Z,90.39
2023-03-24T10:10:38.797Z,90.19
2023-03-24T10:11:38.891Z,90.08
2023-03-24T10:12:38.727Z,90.08
2023-03-24T10:13:38.989Z,89.88
2023-03-24T10:14:38.782Z,89.67
2023-03-24T10:15:38.751Z,89.58
2023-03-24T10:16:38.696Z,89.58
2023-03-24T10:17:38.719Z,89.58
2023-03-24T10:18:38.657Z,89.88
2023-03-24T10:19:38.639Z,89.98
2023-03-24T10:20:38.658Z,89.98
2023-03-24T10:21:38.656Z,89.98
2023-03-24T10:22:38.624Z,89.94
2023-03-24T10:23:38.593Z,89.94
2023-03-24T10:24:38.857Z,89.84
2023-03-24T10:25:38.538Z,89.63
2023-03-24T10:26:38.583Z,89.32
2023-03-24T10:27:38.673Z,89.23
2023-03-24T10:28:38.678Z,89.28
2023-03-24T10:29:38.974Z,89.39
2023-03-24T10:30:38.672Z,89.39
2023-03-24T10:31:38.590Z,89.69
2023-03-24T10:32:38.565Z,89.90
2023-03-24T10:33:38.497Z,89.65
2023-03-24T10:34:38.669Z,88.53
2023-03-24T10:35:38.450Z,88.43
2023-03-24T10:36:38.446Z,88.53
2023-03-24T10:37:38.738Z,88.73
2023-03-24T10:38:38.399Z,88.73
2023-03-24T10:39:44.740Z,88.43
2023-03-24T10:40:39.366Z,88.18
2023-03-24T10:41:38.363Z,88.08
2023-03-24T10:42:38.365Z,87.98
2023-03-24T10:43:38.365Z,87.77
2023-03-24T10:44:38.309Z,87.53
2023-03-24T10:45:38.456Z,88.04
2023-03-24T10:46:38.337Z,88.14
2023-03-24T10:47:38.273Z,87.73
2023-03-24T10:48:38.306Z,87.23
2023-03-24T10:49:38.264Z,86.88
2023-03-24T10:50:38.269Z,86.47
2023-03-24T10:51:38.227Z,86.37
2023-03-24T10:52:38.184Z,86.33
2023-03-24T10:53:38.205Z,86.33
2023-03-24T10:54:38.195Z,85.92
2023-03-24T10:55:38.290Z,85.11
2023-03-24T10:56:38.309Z,83.68
2023-03-24T10:57:38.141Z,83.89
2023-03-24T10:58:38.120Z,84.15
2023-03-24T10:59:38.101Z,84.50
2023-03-24T11:00:40.444Z,85.37
2023-03-24T11:01:38.154Z,85.88
2023-03-24T11:02:38.273Z,85.88
2023-03-24T11:03:38.116Z,84.90
2023-03-24T11:04:38.019Z,84.39
2023-03-24T11:05:38.019Z,84.39
2023-03-24T11:06:38.005Z,84.19
2023-03-24T11:07:37.975Z,83.54
2023-03-24T11:08:37.979Z,83.27
2023-03-24T11:09:37.982Z,83.34
2023-03-24T11:10:37.973Z,83.98
2023-03-24T11:11:37.910Z,83.58
2023-03-24T11:12:37.950Z,83.17
2023-03-24T11:13:37.891Z,82.12
2023-03-24T11:14:37.869Z,81.30
2023-03-24T11:15:37.902Z,81.20
2023-03-24T11:16:37.890Z,82.62
2023-03-24T11:17:37.839Z,83.74
2023-03-24T11:18:37.834Z,82.48
2023-03-24T11:19:37.840Z,80.35
2023-03-24T11:20:37.821Z,80.04
2023-03-24T11:21:37.810Z,79.33
2023-03-24T11:22:37.818Z,78.21
2023-03-24T11:23:37.820Z,80.00
2023-03-24T11:24:37.776Z,77.67
2023-03-24T11:25:37.775Z,77.83
2023-03-24T11:26:37.755Z,79.05
2023-03-24T11:27:37.704Z,76.82
2023-03-24T11:28:37.687Z,77.73
2023-03-24T11:29:37.763Z,75.29
2023-03-24T11:30:37.781Z,73.26
2023-03-24T11:31:37.720Z,71.73
2023-03-24T11:32:37.692Z,70.72
2023-03-24T11:33:37.876Z,71.23
2023-03-24T11:34:37.771Z,70.42
2023-03-24T11:35:41.766Z,71.30
2023-03-24T11:36:37.732Z,70.59
2023-03-24T11:37:37.653Z,71.80
2023-03-24T11:38:37.587Z,73.39
2023-03-24T11:39:37.535Z,72.89
2023-03-24T11:40:37.532Z,67.71
2023-03-24T11:41:37.560Z,69.54
2023-03-24T11:42:37.500Z,71.13
2023-03-24T11:43:37.484Z,70.62
2023-03-24T11:44:37.473Z,67.58
2023-03-24T11:45:37.452Z,66.66
2023-03-24T11:46:37.562Z,67.61
2023-03-24T11:47:37.531Z,67.41
2023-03-24T11:48:37.922Z,68.93
2023-03-24T11:49:37.423Z,66.29
2023-03-24T11:50:37.504Z,65.27
2023-03-24T11:51:37.402Z,65.37
2023-03-24T11:52:37.378Z,64.87
2023-03-24T11:53:37.409Z,65.07
2023-03-24T11:54:37.379Z,64.43
2023-03-24T11:55:37.353Z,67.10
2023-03-24T11:56:37.357Z,65.55
2023-03-24T11:57:37.340Z,65.34
2023-03-24T11:58:37.304Z,63.82
2023-03-24T11:59:37.327Z,63.45
2023-03-24T12:00:37.285Z,64.67
2023-03-24T12:01:37.266Z,65.17
2023-03-24T12:02:37.593Z,66.46
2023-03-24T12:03:37.301Z,67.75
2023-03-24T12:04:37.278Z,64.50
2023-03-24T12:05:37.238Z,64.81
2023-03-24T12:06:37.268Z,66.09
2023-03-24T12:07:37.179Z,65.48
2023-03-24T12:08:37.213Z,65.25
2023-03-24T12:09:37.164Z,65.79
2023-03-24T12:10:37.169Z,66.60
2023-03-24T12:11:37.126Z,66.57
2023-03-24T12:12:37.170Z,62.75
2023-03-24T12:13:37.074Z,61.74
2023-03-24T12:14:37.166Z,61.25
2023-03-24T12:15:37.110Z,60.65
2023-03-24T12:16:39.299Z,60.62
2023-03-24T12:17:37.055Z,60.93
2023-03-24T12:18:37.031Z,60.79
2023-03-24T12:19:36.991Z,62.11
2023-03-24T12:20:36.993Z,62.38
2023-03-24T12:21:37.273Z,63.09
2023-03-24T12:22:38.577Z,60.74
2023-03-24T12:23:36.950Z,60.63
2023-03-24T12:24:36.991Z,58.20
2023-03-24T12:25:36.920Z,58.51
2023-03-24T12:26:36.946Z,59.92
2023-03-24T12:27:36.922Z,57.47
2023-03-24T12:28:37.110Z,57.27
2023-03-24T12:29:36.992Z,56.56
2023-03-24T12:30:36.939Z,57.27
2023-03-24T12:31:37.004Z,56.96
2023-03-24T12:32:36.912Z,56.56
2023-03-24T12:33:37.093Z,57.87
2023-03-24T12:34:36.862Z,57.27
2023-03-24T12:35:39.340Z,56.46
2023-03-24T12:36:36.835Z,57.37
2023-03-24T12:37:36.909Z,57.67
2023-03-24T12:38:36.838Z,57.34
2023-03-24T12:39:36.771Z,57.04
2023-03-24T12:40:36.791Z,56.33
2023-03-24T12:41:36.734Z,56.91
2023-03-24T12:42:36.723Z,55.52
2023-03-24T12:43:36.692Z,55.19
2023-03-24T12:44:36.878Z,55.69
2023-03-24T12:45:36.747Z,56.23
2023-03-24T12:46:47.901Z,56.84
2023-03-24T12:47:37.672Z,54.71
2023-03-24T12:48:36.607Z,55.32
2023-03-24T12:49:36.623Z,55.82
2023-03-24T12:50:36.599Z,52.59
2023-03-24T12:51:36.560Z,53.90
2023-03-24T12:52:36.577Z,54.69
2023-03-24T12:53:36.555Z,54.49